x

Newport, Or (nwpo3) Weather Station

4:00pm - Fri 24th Oct 2014 All times are PDT. -7 hours from GMT.

  • Wind
    16mph, 20mph gusts
  • Air Temp 53°f
  • Sea Pressure 1008.5mb
  • Newport, Or
  • Newport, Or

More Historic Weather Station data

Upgrade to MSW Pro to gain access to the past 30 days of data for over 8000 Wavebouys and Weather Stations around the globe.

Join Pro

Comparision Forecast

View Surf forecast
   
Fri 10/24 4:00pm 16 20 mph 1008.5mb 53f
3:00pm 10 14 mph 1009.4mb 54f
2:00pm 11 14 mph 1010.4mb 53f
1:00pm 10 14 mph 1011.7mb 54f
12:00pm 15 18 mph 1012mb 56f
11:00am 14 17 mph 1012.5mb 56f
10:00am 13 17 mph 1013.1mb 55f
9:00am 11 14 mph 1013.6mb 54f
8:00am 11 14 mph 1013.9mb 53f
7:00am 11 14 mph 1014.3mb 53f
6:00am 8 9 mph 1014.8mb 53f
5:00am 8 9 mph 1014.9mb 53f
4:00am 7 8 mph 1015.3mb 53f
3:00am 7 8 mph 1015.7mb 53f
2:00am 5
mph
1016mb 54f
1:00am 1 2 mph 1016mb 56f
12:00am 8 10 mph 1015.5mb 56f
Thu 10/23 11:00pm 6 8 mph 1015.3mb 56f
10:00pm 9 10 mph 1015mb 56f
9:00pm 7 10 mph 1014.6mb 55f
8:00pm 5 6 mph 1014.4mb 55f
7:00pm 3 5 mph 1014.4mb 55f
6:00pm 9 11 mph 1014.1mb 58f
5:00pm 13 16 mph 1014mb 59f
4:00pm 13 15 mph 1014mb 59f
3:00pm 14 16 mph 1013.7mb 59f
2:00pm 18 21 mph 1013.4mb 59f
1:00pm 15 18 mph 1013.2mb 60f
12:00pm 16 18 mph 1012.6mb 60f
11:00am 17 20 mph 1012mb 59f
10:00am 16 20 mph 1011.4mb 58f
9:00am 14 17 mph 1010.5mb 59f
8:00am 13 16 mph 1009.9mb 58f
7:00am 18 21 mph 1008.9mb 57f
6:00am 28 33 mph 1008.2mb 57f
5:00am 14 17 mph 1007.9mb 58f
4:00am 22 24 mph 1008.2mb 56f
3:00am 23 25 mph 1007.7mb 58f
2:00am 11 15 mph 1007.8mb 57f
1:00am 17 21 mph 1008.3mb 58f
12:00am 16 18 mph 1008.2mb 58f
Wed 10/22 11:00pm 10 13 mph 1008.4mb 56f
10:00pm 14 16 mph 1008.5mb 55f
9:00pm 16 18 mph 1008mb 55f
8:00pm 15 17 mph 1007.9mb 54f
7:00pm 23 29 mph 1006.6mb 59f
6:00pm 18 22 mph 1006.3mb 57f
5:00pm 10 13 mph 1006.6mb 56f
4:00pm 17 21 mph 1006.8mb 57f
3:00pm 16 20 mph 1007mb 57f
2:00pm 7 9 mph 1005.9mb 56f
1:00pm 22 28 mph 1006.9mb 57f
12:00pm 26 33 mph 1007.4mb 59f
11:00am 16 22 mph 1007.6mb 59f
10:00am 23 28 mph 1007.7mb 58f
9:00am 20 24 mph 1007.9mb 58f
8:00am 33 39 mph 1008.1mb 59f
7:00am 28 32 mph 1008.1mb 59f
6:00am 31 36 mph 1008mb 59f
5:00am 31 40 mph 1008.2mb 59f
4:00am 34 43 mph 1008.4mb 59f
3:00am 31 40 mph 1008.7mb 58f
2:00am 31 37 mph 1008.9mb 58f
1:00am 34 43 mph 1008.8mb 59f
12:00am 22 29 mph 1008.9mb 58f
Tue 10/21 11:00pm 14 18 mph 1009.6mb 56f
10:00pm 15 21 mph 1010.1mb 57f
9:00pm 10 14 mph 1010.6mb 57f
8:00pm 9 11 mph 1011.6mb 57f
7:00pm 7 8 mph 1012.4mb 58f
6:00pm 9 13 mph 1012.8mb 60f
5:00pm 17 22 mph 1013.4mb 60f
4:00pm 22 28 mph 1014.1mb 60f
3:00pm 30 34 mph 1014.3mb 61f
2:00pm 30 36 mph 1014.8mb 60f
1:00pm 24 29 mph 1015.3mb 60f
12:00pm 23 29 mph 1015.5mb 60f
11:00am 15 21 mph 1015.8mb 59f
10:00am 11 17 mph 1015.4mb 59f
9:00am 16 20 mph 1014.8mb 57f
8:00am 25 29 mph 1014.5mb 57f
7:00am 23 29 mph 1014.2mb 57f
6:00am 24 28 mph 1014mb 57f
5:00am 20 26 mph 1013.5mb 57f
4:00am 22 28 mph 1013.1mb 57f
3:00am 24 32 mph 1012.8mb 57f
2:00am 22 25 mph 1012.2mb 57f
1:00am 25 30 mph 1011.9mb 57f